createdAt,value
2018-08-27T00:00:22.895Z,989.85
2018-08-27T00:01:22.891Z,989.88
2018-08-27T00:02:22.887Z,989.88
2018-08-27T00:03:22.888Z,989.86
2018-08-27T00:04:22.894Z,989.9
2018-08-27T00:05:22.956Z,989.83
2018-08-27T00:06:22.880Z,989.86
2018-08-27T00:07:22.878Z,989.89
2018-08-27T00:08:22.873Z,989.9
2018-08-27T00:09:22.872Z,989.86
2018-08-27T00:10:22.885Z,989.91
2018-08-27T00:11:22.872Z,989.97
2018-08-27T00:12:22.865Z,989.91
2018-08-27T00:13:22.865Z,989.89
2018-08-27T00:14:22.863Z,989.92
2018-08-27T00:15:22.863Z,989.91
2018-08-27T00:16:22.855Z,989.91
2018-08-27T00:17:22.853Z,989.92
2018-08-27T00:18:22.850Z,989.92
2018-08-27T00:19:22.850Z,989.94
2018-08-27T00:20:22.844Z,989.96
2018-08-27T00:21:22.842Z,989.97
2018-08-27T00:22:22.848Z,989.96
2018-08-27T00:23:22.843Z,989.96
2018-08-27T00:24:22.839Z,989.96
2018-08-27T00:25:22.837Z,989.93
2018-08-27T00:26:22.836Z,989.92
2018-08-27T00:27:22.828Z,989.96
2018-08-27T00:28:22.824Z,989.91
2018-08-27T00:29:22.826Z,989.95
2018-08-27T00:30:22.823Z,989.96
2018-08-27T00:31:22.819Z,989.96
2018-08-27T00:32:22.819Z,990.01
2018-08-27T00:33:22.814Z,989.98
2018-08-27T00:34:22.816Z,989.94
2018-08-27T00:35:22.809Z,989.96
2018-08-27T00:36:22.805Z,989.94
2018-08-27T00:37:22.803Z,989.91
2018-08-27T00:38:22.809Z,989.89
2018-08-27T00:39:22.805Z,989.92
2018-08-27T00:40:22.794Z,989.86
2018-08-27T00:41:22.803Z,989.95
2018-08-27T00:42:22.791Z,989.97
2018-08-27T00:43:22.788Z,989.96
2018-08-27T00:44:22.787Z,989.93
2018-08-27T00:45:22.782Z,989.96
2018-08-27T00:46:22.782Z,989.95
2018-08-27T00:47:22.792Z,989.99
2018-08-27T00:48:22.786Z,989.97
2018-08-27T00:49:22.789Z,989.95
2018-08-27T00:50:22.773Z,989.98
2018-08-27T00:51:22.771Z,989.95
2018-08-27T00:52:22.767Z,989.96
2018-08-27T00:53:22.785Z,989.99
2018-08-27T00:54:22.769Z,989.96
2018-08-27T00:55:22.825Z,989.92
2018-08-27T00:56:22.759Z,989.94
2018-08-27T00:57:22.761Z,989.9
2018-08-27T00:58:22.755Z,989.91
2018-08-27T00:59:22.751Z,989.87
2018-08-27T01:00:22.751Z,989.89
2018-08-27T01:01:22.748Z,989.89
2018-08-27T01:02:22.749Z,989.88
2018-08-27T01:03:22.748Z,989.88
2018-08-27T01:04:22.759Z,989.86
2018-08-27T01:05:22.748Z,989.87
2018-08-27T01:06:22.742Z,989.86
2018-08-27T01:07:22.751Z,989.86
2018-08-27T01:08:22.747Z,989.86
2018-08-27T01:09:22.756Z,989.83
2018-08-27T01:10:22.764Z,989.86
2018-08-27T01:11:22.736Z,989.86
2018-08-27T01:12:22.731Z,989.85
2018-08-27T01:13:22.733Z,989.9
2018-08-27T01:14:22.728Z,989.83
2018-08-27T01:15:22.726Z,989.86
2018-08-27T01:16:22.724Z,989.84
2018-08-27T01:17:22.727Z,989.85
2018-08-27T01:18:22.720Z,989.78
2018-08-27T01:19:22.722Z,989.78
2018-08-27T01:20:22.716Z,989.82
2018-08-27T01:21:22.721Z,989.77
2018-08-27T01:22:22.752Z,989.73
2018-08-27T01:23:22.711Z,989.77
2018-08-27T01:24:22.712Z,989.73
2018-08-27T01:25:22.707Z,989.7
2018-08-27T01:26:22.706Z,989.71
2018-08-27T01:27:22.703Z,989.68
2018-08-27T01:28:22.705Z,989.65
2018-08-27T01:29:22.702Z,989.71
2018-08-27T01:30:22.796Z,989.7
2018-08-27T01:31:22.698Z,989.7
2018-08-27T01:32:22.713Z,989.68
2018-08-27T01:33:22.694Z,989.66
2018-08-27T01:34:22.692Z,989.68
2018-08-27T01:35:22.693Z,989.66
2018-08-27T01:36:22.689Z,989.67
2018-08-27T01:37:22.692Z,989.68
2018-08-27T01:38:22.688Z,989.71
2018-08-27T01:39:22.685Z,989.68
2018-08-27T01:40:22.685Z,989.71
2018-08-27T01:41:22.685Z,989.68
2018-08-27T01:42:22.680Z,989.69
2018-08-27T01:43:22.678Z,989.67
2018-08-27T01:44:22.680Z,989.69
2018-08-27T01:45:22.712Z,989.64
2018-08-27T01:46:22.681Z,989.65
2018-08-27T01:47:22.671Z,989.64
2018-08-27T01:48:22.669Z,989.64
2018-08-27T01:49:22.669Z,989.63
2018-08-27T01:50:22.717Z,989.65
2018-08-27T01:51:22.664Z,989.64
2018-08-27T01:52:22.662Z,989.65
2018-08-27T01:53:22.660Z,989.67
2018-08-27T01:54:22.661Z,989.65
2018-08-27T01:55:22.671Z,989.61
2018-08-27T01:56:22.655Z,989.61
2018-08-27T01:57:22.658Z,989.62
2018-08-27T01:58:22.653Z,989.62
2018-08-27T01:59:22.653Z,989.59
2018-08-27T02:00:22.703Z,989.61
2018-08-27T02:01:22.645Z,989.58
2018-08-27T02:02:22.646Z,989.6
2018-08-27T02:03:22.641Z,989.62
2018-08-27T02:04:22.641Z,989.56
2018-08-27T02:05:22.643Z,989.61
2018-08-27T02:06:22.636Z,989.62
2018-08-27T02:07:22.641Z,989.61
2018-08-27T02:08:22.633Z,989.59
2018-08-27T02:09:22.637Z,989.6
2018-08-27T02:10:22.628Z,989.63
2018-08-27T02:11:22.628Z,989.59
2018-08-27T02:12:22.624Z,989.58
2018-08-27T02:13:22.623Z,989.59
2018-08-27T02:14:22.622Z,989.58
2018-08-27T02:15:22.629Z,989.53
2018-08-27T02:16:22.614Z,989.52
2018-08-27T02:17:22.629Z,989.53
2018-08-27T02:18:22.612Z,989.51
2018-08-27T02:19:22.610Z,989.51
2018-08-27T02:20:22.636Z,989.48
2018-08-27T02:21:22.605Z,989.45
2018-08-27T02:22:22.605Z,989.49
2018-08-27T02:23:22.602Z,989.49
2018-08-27T02:24:22.600Z,989.44
2018-08-27T02:25:22.644Z,989.42
2018-08-27T02:26:22.604Z,989.41
2018-08-27T02:27:22.592Z,989.45
2018-08-27T02:28:22.604Z,989.39
2018-08-27T02:29:22.589Z,989.42
2018-08-27T02:30:22.592Z,989.39
2018-08-27T02:31:22.587Z,989.37
2018-08-27T02:32:22.634Z,989.38
2018-08-27T02:33:22.580Z,989.39
2018-08-27T02:34:22.580Z,989.41
2018-08-27T02:35:22.580Z,989.38
2018-08-27T02:36:22.574Z,989.38
2018-08-27T02:37:22.573Z,989.36
2018-08-27T02:38:22.571Z,989.38
2018-08-27T02:39:22.572Z,989.37
2018-08-27T02:40:22.568Z,989.3
2018-08-27T02:41:22.565Z,989.34
2018-08-27T02:42:22.564Z,989.3
2018-08-27T02:43:22.559Z,989.31
2018-08-27T02:44:22.559Z,989.35
2018-08-27T02:45:22.559Z,989.36
2018-08-27T02:46:22.569Z,989.3
2018-08-27T02:47:22.550Z,989.31
2018-08-27T02:48:22.558Z,989.33
2018-08-27T02:49:22.547Z,989.34
2018-08-27T02:50:22.599Z,989.31
2018-08-27T02:51:22.546Z,989.3
2018-08-27T02:52:22.540Z,989.32
2018-08-27T02:53:22.537Z,989.33
2018-08-27T02:54:22.539Z,989.32
2018-08-27T02:55:22.536Z,989.34
2018-08-27T02:56:22.533Z,989.31
2018-08-27T02:57:22.530Z,989.28
2018-08-27T02:58:22.528Z,989.33
2018-08-27T02:59:22.529Z,989.34
2018-08-27T03:00:22.544Z,989.3
2018-08-27T03:01:22.521Z,989.28
2018-08-27T03:02:22.517Z,989.32
2018-08-27T03:03:22.516Z,989.29
2018-08-27T03:04:22.513Z,989.23
2018-08-27T03:05:22.520Z,989.3
2018-08-27T03:06:22.509Z,989.27
2018-08-27T03:07:22.506Z,989.25
2018-08-27T03:08:22.505Z,989.2
2018-08-27T03:09:22.504Z,989.18
2018-08-27T03:10:22.517Z,989.14
2018-08-27T03:11:22.504Z,989.18
2018-08-27T03:12:22.497Z,989.2
2018-08-27T03:13:22.490Z,989.19
2018-08-27T03:14:22.490Z,989.2
2018-08-27T03:15:22.487Z,989.2
2018-08-27T03:16:22.491Z,989.23
2018-08-27T03:17:22.481Z,989.21
2018-08-27T03:18:22.504Z,989.26
2018-08-27T03:19:22.481Z,989.19
2018-08-27T03:20:22.474Z,989.18
2018-08-27T03:21:22.474Z,989.17
2018-08-27T03:22:22.472Z,989.19
2018-08-27T03:23:22.473Z,989.24
2018-08-27T03:24:22.465Z,989.19
2018-08-27T03:25:22.494Z,989.2
2018-08-27T03:26:22.462Z,989.14
2018-08-27T03:27:22.469Z,989.2
2018-08-27T03:28:22.466Z,989.17
2018-08-27T03:29:22.467Z,989.16
2018-08-27T03:30:22.456Z,989.14
2018-08-27T03:31:22.448Z,989.17
2018-08-27T03:32:22.466Z,989.21
2018-08-27T03:33:22.442Z,989.12
2018-08-27T03:34:22.440Z,989.16
2018-08-27T03:35:22.483Z,989.17
2018-08-27T03:36:22.436Z,989.17
2018-08-27T03:37:22.436Z,989.1
2018-08-27T03:38:22.433Z,989.09
2018-08-27T03:39:22.434Z,989.13
2018-08-27T03:40:22.425Z,989.27
2018-08-27T03:41:22.429Z,989.11
2018-08-27T03:42:22.420Z,989.08
2018-08-27T03:43:22.428Z,989.1
2018-08-27T03:44:22.417Z,989.11
2018-08-27T03:45:22.414Z,989.09
2018-08-27T03:46:22.419Z,989.12
2018-08-27T03:47:22.412Z,989.1
2018-08-27T03:48:22.440Z,989.1
2018-08-27T03:49:22.412Z,989.15
2018-08-27T03:50:22.408Z,989.12
2018-08-27T03:51:22.399Z,989.08
2018-08-27T03:52:22.398Z,989.06
2018-08-27T03:53:22.395Z,989.13
2018-08-27T03:54:22.391Z,989.11
2018-08-27T03:55:22.456Z,989.08
2018-08-27T03:56:22.392Z,989.1
2018-08-27T03:57:22.386Z,989.13
2018-08-27T03:58:22.388Z,989.14
2018-08-27T03:59:22.384Z,989.15
2018-08-27T04:00:22.438Z,989.15
2018-08-27T04:01:22.383Z,989.14
2018-08-27T04:02:22.403Z,989.15
2018-08-27T04:03:22.373Z,989.22
2018-08-27T04:04:22.373Z,989.17
2018-08-27T04:05:22.440Z,989.17
2018-08-27T04:06:22.368Z,989.14
2018-08-27T04:07:22.374Z,989.16
2018-08-27T04:08:22.367Z,989.09
2018-08-27T04:09:22.363Z,989.08
2018-08-27T04:10:22.370Z,989.15
2018-08-27T04:11:22.359Z,989.1
2018-08-27T04:12:22.355Z,989.1
2018-08-27T04:13:22.359Z,989.1
2018-08-27T04:14:22.372Z,989.13
2018-08-27T04:15:22.349Z,989.11
2018-08-27T04:16:22.348Z,989.1
2018-08-27T04:17:22.350Z,989.11
2018-08-27T04:18:22.594Z,989.09
2018-08-27T04:19:22.341Z,989.08
2018-08-27T04:20:22.353Z,989.11
2018-08-27T04:21:22.337Z,989.12
2018-08-27T04:22:22.332Z,989.04
2018-08-27T04:23:22.337Z,989.1
2018-08-27T04:24:22.354Z,989.08
2018-08-27T04:25:22.331Z,989.13
2018-08-27T04:26:22.334Z,989.18
2018-08-27T04:27:22.320Z,989.16
2018-08-27T04:28:22.320Z,989.21
2018-08-27T04:29:22.316Z,989.19
2018-08-27T04:30:22.311Z,989.21
2018-08-27T04:31:22.307Z,989.29
2018-08-27T04:32:22.306Z,989.2
2018-08-27T04:33:22.304Z,989.21
2018-08-27T04:34:22.299Z,989.26
2018-08-27T04:35:22.301Z,989.31
2018-08-27T04:36:22.295Z,989.39
2018-08-27T04:37:22.301Z,989.34
2018-08-27T04:38:22.295Z,989.36
2018-08-27T04:39:22.291Z,989.33
2018-08-27T04:40:22.320Z,989.35
2018-08-27T04:41:22.283Z,989.37
2018-08-27T04:42:22.287Z,989.37
2018-08-27T04:43:22.280Z,989.32
2018-08-27T04:44:22.286Z,989.32
2018-08-27T04:45:22.281Z,989.32
2018-08-27T04:46:22.280Z,989.29
2018-08-27T04:47:22.291Z,989.29
2018-08-27T04:48:22.274Z,989.27
2018-08-27T04:49:22.276Z,989.27
2018-08-27T04:50:22.296Z,989.24
2018-08-27T04:51:22.263Z,989.23
2018-08-27T04:52:22.262Z,989.24
2018-08-27T04:53:22.261Z,989.25
2018-08-27T04:54:22.260Z,989.27
2018-08-27T04:55:22.267Z,989.2
2018-08-27T04:56:22.254Z,989.23
2018-08-27T04:57:22.260Z,989.23
2018-08-27T04:58:22.252Z,989.22
2018-08-27T04:59:22.247Z,989.28
2018-08-27T05:00:22.279Z,989.18
2018-08-27T05:01:22.247Z,989.21
2018-08-27T05:02:22.256Z,989.23
2018-08-27T05:03:23.045Z,989.24
2018-08-27T05:04:22.239Z,989.29
2018-08-27T05:05:22.258Z,989.26
2018-08-27T05:06:22.236Z,989.3
2018-08-27T05:07:22.239Z,989.26
2018-08-27T05:08:22.230Z,989.21
2018-08-27T05:09:22.228Z,989.21
2018-08-27T05:10:22.325Z,989.21
2018-08-27T05:11:22.223Z,989.25
2018-08-27T05:12:22.222Z,989.24
2018-08-27T05:13:22.218Z,989.28
2018-08-27T05:14:22.222Z,989.25
2018-08-27T05:15:22.265Z,989.3
2018-08-27T05:16:22.217Z,989.33
2018-08-27T05:17:22.214Z,989.35
2018-08-27T05:18:22.214Z,989.24
2018-08-27T05:19:22.207Z,989.34
2018-08-27T05:20:22.248Z,989.45
2018-08-27T05:21:22.202Z,989.42
2018-08-27T05:22:22.202Z,989.4
2018-08-27T05:23:22.201Z,989.4
2018-08-27T05:24:22.200Z,989.41
2018-08-27T05:25:22.284Z,989.42
2018-08-27T05:26:22.195Z,989.44
2018-08-27T05:27:22.196Z,989.41
2018-08-27T05:28:22.200Z,989.36
2018-08-27T05:29:22.192Z,989.31
2018-08-27T05:30:22.185Z,989.34
2018-08-27T05:31:22.222Z,989.35
2018-08-27T05:32:22.181Z,989.27
2018-08-27T05:33:22.177Z,989.35
2018-08-27T05:34:22.175Z,989.35
2018-08-27T05:35:22.244Z,989.3
2018-08-27T05:36:22.172Z,989.34
2018-08-27T05:37:22.169Z,989.35
2018-08-27T05:38:22.188Z,989.33
2018-08-27T05:39:22.167Z,989.34
2018-08-27T05:40:22.161Z,989.35
2018-08-27T05:41:22.164Z,989.32
2018-08-27T05:42:22.174Z,989.38
2018-08-27T05:43:22.163Z,989.33
2018-08-27T05:44:22.225Z,989.37
2018-08-27T05:45:22.203Z,989.43
2018-08-27T05:46:22.163Z,989.46
2018-08-27T05:47:22.159Z,989.39
2018-08-27T05:48:22.154Z,989.38
2018-08-27T05:49:22.154Z,989.37
2018-08-27T05:50:22.153Z,989.37
2018-08-27T05:51:22.149Z,989.34
2018-08-27T05:52:22.205Z,989.38
2018-08-27T05:53:22.160Z,989.42
2018-08-27T05:54:22.157Z,989.41
2018-08-27T05:55:22.152Z,989.44
2018-08-27T05:56:22.143Z,989.4
2018-08-27T05:57:22.161Z,989.38
2018-08-27T05:58:22.141Z,989.39
2018-08-27T05:59:22.141Z,989.32
2018-08-27T06:00:22.142Z,989.4
2018-08-27T06:01:22.198Z,989.4
2018-08-27T06:02:22.137Z,989.35
2018-08-27T06:03:22.138Z,989.37
2018-08-27T06:04:22.187Z,989.37
2018-08-27T06:05:22.182Z,989.35
2018-08-27T06:06:22.137Z,989.32
2018-08-27T06:07:22.135Z,989.29
2018-08-27T06:08:22.138Z,989.32
2018-08-27T06:09:22.143Z,989.33
2018-08-27T06:10:22.239Z,989.36
2018-08-27T06:11:22.132Z,989.32
2018-08-27T06:12:22.133Z,989.33
2018-08-27T06:13:22.127Z,989.34
2018-08-27T06:14:22.128Z,989.37
2018-08-27T06:15:22.168Z,989.33
2018-08-27T06:16:22.223Z,989.36
2018-08-27T06:17:22.125Z,989.3
2018-08-27T06:18:22.128Z,989.33
2018-08-27T06:19:22.924Z,989.34
2018-08-27T06:20:22.248Z,989.41
2018-08-27T06:21:22.142Z,989.36
2018-08-27T06:22:22.237Z,989.38
2018-08-27T06:23:22.127Z,989.39
2018-08-27T06:24:22.123Z,989.36
2018-08-27T06:25:22.153Z,989.4
2018-08-27T06:26:22.122Z,989.45
2018-08-27T06:27:22.124Z,989.51
2018-08-27T06:28:22.125Z,989.51
2018-08-27T06:29:22.138Z,989.49
2018-08-27T06:30:22.215Z,989.46
2018-08-27T06:31:22.129Z,989.45
2018-08-27T06:32:22.142Z,989.48
2018-08-27T06:33:22.133Z,989.45
2018-08-27T06:34:22.128Z,989.47
2018-08-27T06:35:22.134Z,989.43
2018-08-27T06:36:22.127Z,989.47
2018-08-27T06:37:22.128Z,989.45
2018-08-27T06:38:22.129Z,989.35
2018-08-27T06:39:22.132Z,989.28
2018-08-27T06:40:22.143Z,989.22
2018-08-27T06:41:22.133Z,989.22
2018-08-27T06:42:22.133Z,989.23
2018-08-27T06:43:22.136Z,989.24
2018-08-27T06:44:22.140Z,989.28
2018-08-27T06:45:22.227Z,989.29
2018-08-27T06:46:22.196Z,989.28
2018-08-27T06:47:22.144Z,989.27
2018-08-27T06:48:22.147Z,989.32
2018-08-27T06:49:22.153Z,989.33
2018-08-27T06:50:22.187Z,989.36
2018-08-27T06:51:22.153Z,989.4
2018-08-27T06:52:22.158Z,989.39
2018-08-27T06:53:22.180Z,989.37
2018-08-27T06:54:22.161Z,989.35
2018-08-27T06:55:22.254Z,989.34
2018-08-27T06:56:22.175Z,989.37
2018-08-27T06:57:22.179Z,989.38
2018-08-27T06:58:22.176Z,989.34
2018-08-27T06:59:22.180Z,989.33
2018-08-27T07:00:22.293Z,989.34
2018-08-27T07:01:22.185Z,989.35
2018-08-27T07:02:22.287Z,989.35
2018-08-27T07:03:22.183Z,989.34
2018-08-27T07:04:22.206Z,989.33
2018-08-27T07:05:22.243Z,989.36
2018-08-27T07:06:22.202Z,989.37
2018-08-27T07:07:22.208Z,989.36
2018-08-27T07:08:22.206Z,989.4
2018-08-27T07:09:22.204Z,989.39
2018-08-27T07:10:22.203Z,989.4
2018-08-27T07:11:22.207Z,989.39
2018-08-27T07:12:22.215Z,989.38
2018-08-27T07:13:22.220Z,989.37
2018-08-27T07:14:22.210Z,989.42
2018-08-27T07:15:22.212Z,989.39
2018-08-27T07:16:22.213Z,989.37
2018-08-27T07:17:22.215Z,989.41
2018-08-27T07:18:22.229Z,989.38
2018-08-27T07:19:22.220Z,989.4
2018-08-27T07:20:22.345Z,989.37
2018-08-27T07:21:22.229Z,989.42
2018-08-27T07:22:22.233Z,989.45
2018-08-27T07:23:22.244Z,989.43
2018-08-27T07:24:22.233Z,989.43
2018-08-27T07:25:22.234Z,989.4
2018-08-27T07:26:22.239Z,989.43
2018-08-27T07:27:22.266Z,989.39
2018-08-27T07:28:22.254Z,989.41
2018-08-27T07:29:22.245Z,989.41
2018-08-27T07:30:22.336Z,989.38
2018-08-27T07:31:22.249Z,989.39
2018-08-27T07:32:22.251Z,989.41
2018-08-27T07:33:22.256Z,989.41
2018-08-27T07:34:22.260Z,989.41
2018-08-27T07:35:22.262Z,989.45
2018-08-27T07:36:22.277Z,989.49
2018-08-27T07:37:22.278Z,989.47
2018-08-27T07:38:22.341Z,989.52
2018-08-27T07:39:22.349Z,989.48
2018-08-27T07:40:22.276Z,989.51
2018-08-27T07:41:22.277Z,989.53
2018-08-27T07:42:22.279Z,989.53
2018-08-27T07:43:22.301Z,989.55
2018-08-27T07:44:22.286Z,989.55
2018-08-27T07:45:22.300Z,989.55
2018-08-27T07:46:22.319Z,989.56
2018-08-27T07:47:22.300Z,989.58
2018-08-27T07:48:22.303Z,989.53
2018-08-27T07:49:22.304Z,989.5
2018-08-27T07:50:22.302Z,989.52
2018-08-27T07:51:22.409Z,989.57
2018-08-27T07:52:22.312Z,989.54
2018-08-27T07:53:22.312Z,989.51
2018-08-27T07:54:22.323Z,989.55
2018-08-27T07:55:22.322Z,989.58
2018-08-27T07:56:22.322Z,989.61
2018-08-27T07:57:22.326Z,989.6
2018-08-27T07:58:22.367Z,989.65
2018-08-27T07:59:22.331Z,989.66
2018-08-27T08:00:22.397Z,989.65
2018-08-27T08:01:22.340Z,989.63
2018-08-27T08:02:22.347Z,989.65
2018-08-27T08:03:22.347Z,989.68
2018-08-27T08:04:22.350Z,989.66
2018-08-27T08:05:22.354Z,989.68
2018-08-27T08:06:22.357Z,989.65
2018-08-27T08:07:22.525Z,989.66
2018-08-27T08:08:22.363Z,989.67
2018-08-27T08:09:22.368Z,989.7
2018-08-27T08:10:22.374Z,989.73
2018-08-27T08:11:22.391Z,989.77
2018-08-27T08:12:22.380Z,989.76
2018-08-27T08:13:22.381Z,989.76
2018-08-27T08:14:22.387Z,989.74
2018-08-27T08:15:22.455Z,989.76
2018-08-27T08:16:22.393Z,989.77
2018-08-27T08:17:22.395Z,989.75
2018-08-27T08:18:22.400Z,989.73
2018-08-27T08:19:22.412Z,989.74
2018-08-27T08:20:22.410Z,989.7
2018-08-27T08:21:22.414Z,989.68
2018-08-27T08:22:22.416Z,989.69
2018-08-27T08:23:22.426Z,989.71
2018-08-27T08:24:22.423Z,989.71
2018-08-27T08:25:22.427Z,989.74
2018-08-27T08:26:22.430Z,989.78
2018-08-27T08:27:22.432Z,989.73
2018-08-27T08:28:22.436Z,989.73
2018-08-27T08:29:22.438Z,989.73
2018-08-27T08:30:22.443Z,989.73
2018-08-27T08:31:22.445Z,989.75
2018-08-27T08:32:22.448Z,989.79
2018-08-27T08:33:22.502Z,989.7
2018-08-27T08:34:22.461Z,989.75
2018-08-27T08:35:22.489Z,989.69
2018-08-27T08:36:22.460Z,989.74
2018-08-27T08:37:22.463Z,989.69
2018-08-27T08:38:22.469Z,989.78
2018-08-27T08:39:22.468Z,989.8
2018-08-27T08:40:22.513Z,989.82
2018-08-27T08:41:22.482Z,989.72
2018-08-27T08:42:22.480Z,989.74
2018-08-27T08:43:22.485Z,989.75
2018-08-27T08:44:22.486Z,989.69
2018-08-27T08:45:22.489Z,989.66
2018-08-27T08:46:22.491Z,989.65
2018-08-27T08:47:22.494Z,989.67
2018-08-27T08:48:22.496Z,989.7
2018-08-27T08:49:22.499Z,989.7
2018-08-27T08:50:22.579Z,989.68
2018-08-27T08:51:22.507Z,989.7
2018-08-27T08:52:22.511Z,989.75
2018-08-27T08:53:22.590Z,989.74
2018-08-27T08:54:22.521Z,989.74
2018-08-27T08:55:22.621Z,989.76
2018-08-27T08:56:22.521Z,989.77
2018-08-27T08:57:22.523Z,989.76
2018-08-27T08:58:22.527Z,989.78
2018-08-27T08:59:22.540Z,989.82
2018-08-27T09:00:22.576Z,989.83
2018-08-27T09:01:22.682Z,989.87
2018-08-27T09:02:22.540Z,989.83
2018-08-27T09:03:22.540Z,989.81
2018-08-27T09:04:22.548Z,989.83
2018-08-27T09:05:22.567Z,989.85
2018-08-27T09:06:22.610Z,989.84
2018-08-27T09:07:22.554Z,989.86
2018-08-27T09:08:22.778Z,989.9
2018-08-27T09:09:22.558Z,989.89
2018-08-27T09:10:22.562Z,989.87
2018-08-27T09:11:22.571Z,989.85
2018-08-27T09:12:22.569Z,989.89
2018-08-27T09:13:22.571Z,989.86
2018-08-27T09:14:22.578Z,989.9
2018-08-27T09:15:22.638Z,989.92
2018-08-27T09:16:22.598Z,989.87
2018-08-27T09:17:22.587Z,989.93
2018-08-27T09:18:22.694Z,989.97
2018-08-27T09:19:22.590Z,989.96
2018-08-27T09:20:22.704Z,989.98
2018-08-27T09:21:22.606Z,989.96
2018-08-27T09:22:22.632Z,990
2018-08-27T09:23:22.610Z,990.04
2018-08-27T09:24:22.609Z,990
2018-08-27T09:25:22.666Z,990.08
2018-08-27T09:26:22.658Z,990.04
2018-08-27T09:27:22.619Z,990.02
2018-08-27T09:28:22.624Z,989.91
2018-08-27T09:29:22.627Z,990.01
2018-08-27T09:30:23.429Z,990.04
2018-08-27T09:31:22.635Z,990.01
2018-08-27T09:32:22.632Z,990.07
2018-08-27T09:33:22.643Z,990.09
2018-08-27T09:34:22.646Z,990.05
2018-08-27T09:35:22.694Z,990.01
2018-08-27T09:36:22.650Z,990.05
2018-08-27T09:37:22.692Z,990.1
2018-08-27T09:38:22.648Z,990.11
2018-08-27T09:39:22.655Z,990.09
2018-08-27T09:40:22.656Z,990.12
2018-08-27T09:41:22.680Z,990.06
2018-08-27T09:42:22.661Z,990.04
2018-08-27T09:43:22.662Z,989.99
2018-08-27T09:44:22.667Z,989.96
2018-08-27T09:45:22.684Z,989.9
2018-08-27T09:46:22.680Z,989.88
2018-08-27T09:47:22.675Z,989.88
2018-08-27T09:48:22.678Z,989.83
2018-08-27T09:49:22.683Z,989.82
2018-08-27T09:50:22.688Z,989.82
2018-08-27T09:51:22.691Z,989.84
2018-08-27T09:52:22.690Z,989.9
2018-08-27T09:53:22.702Z,989.87
2018-08-27T09:54:22.713Z,989.85
2018-08-27T09:55:22.700Z,989.84
2018-08-27T09:56:22.713Z,989.87
2018-08-27T09:57:22.712Z,989.84
2018-08-27T09:58:22.709Z,989.86
2018-08-27T09:59:22.711Z,989.84
2018-08-27T10:00:22.726Z,989.8
2018-08-27T10:01:22.719Z,989.78
2018-08-27T10:02:22.720Z,989.77
2018-08-27T10:03:22.723Z,989.77
2018-08-27T10:04:22.728Z,989.73
2018-08-27T10:05:22.775Z,989.69
2018-08-27T10:06:22.733Z,989.69
2018-08-27T10:07:22.739Z,989.68
2018-08-27T10:08:22.740Z,989.62
2018-08-27T10:09:22.786Z,989.62
2018-08-27T10:10:22.829Z,989.61
2018-08-27T10:11:22.752Z,989.65
2018-08-27T10:12:22.752Z,989.65
2018-08-27T10:13:22.756Z,989.65
2018-08-27T10:14:22.757Z,989.67
2018-08-27T10:15:22.762Z,989.64
2018-08-27T10:16:22.770Z,989.64
2018-08-27T10:17:22.767Z,989.72
2018-08-27T10:18:22.771Z,989.71
2018-08-27T10:19:22.774Z,989.68
2018-08-27T10:20:22.777Z,989.66
2018-08-27T10:21:22.782Z,989.68
2018-08-27T10:22:22.804Z,989.69
2018-08-27T10:23:22.788Z,989.72
2018-08-27T10:24:22.791Z,989.72
2018-08-27T10:25:22.820Z,989.74
2018-08-27T10:26:22.804Z,989.75
2018-08-27T10:27:22.800Z,989.72
2018-08-27T10:28:22.808Z,989.74
2018-08-27T10:29:22.806Z,989.76
2018-08-27T10:30:22.809Z,989.8
2018-08-27T10:31:22.813Z,989.78
2018-08-27T10:32:22.820Z,989.75
2018-08-27T10:33:22.824Z,989.74
2018-08-27T10:34:22.831Z,989.75
2018-08-27T10:35:22.865Z,989.74
2018-08-27T10:36:22.834Z,989.71
2018-08-27T10:37:22.940Z,989.71
2018-08-27T10:38:22.839Z,989.69
2018-08-27T10:39:22.848Z,989.69
2018-08-27T10:40:22.888Z,989.66
2018-08-27T10:41:22.865Z,989.66
2018-08-27T10:42:22.860Z,989.63
2018-08-27T10:43:22.858Z,989.65
2018-08-27T10:44:22.874Z,989.69
2018-08-27T10:45:22.863Z,989.7
2018-08-27T10:46:22.869Z,989.65
2018-08-27T10:47:22.873Z,989.67
2018-08-27T10:48:22.876Z,989.65
2018-08-27T10:49:22.882Z,989.66
2018-08-27T10:50:22.965Z,989.65
2018-08-27T10:51:22.890Z,989.64
2018-08-27T10:52:22.897Z,989.63
2018-08-27T10:53:22.911Z,989.71
2018-08-27T10:54:22.905Z,989.71
2018-08-27T10:55:22.959Z,989.68
2018-08-27T10:56:22.912Z,989.69
2018-08-27T10:57:22.914Z,989.67
2018-08-27T10:58:22.924Z,989.65
2018-08-27T10:59:22.923Z,989.66
2018-08-27T11:00:23.024Z,989.67
2018-08-27T11:01:22.946Z,989.63
2018-08-27T11:02:22.953Z,989.65
2018-08-27T11:03:22.951Z,989.62
2018-08-27T11:04:22.944Z,989.62
2018-08-27T11:05:22.995Z,989.63
2018-08-27T11:06:22.960Z,989.58
2018-08-27T11:07:22.957Z,989.56
2018-08-27T11:08:22.959Z,989.55
2018-08-27T11:09:22.974Z,989.54
2018-08-27T11:10:22.974Z,989.46
2018-08-27T11:11:22.978Z,989.48
2018-08-27T11:12:22.981Z,989.45
2018-08-27T11:13:22.986Z,989.45
2018-08-27T11:14:22.987Z,989.43
2018-08-27T11:15:22.992Z,989.45
2018-08-27T11:16:22.996Z,989.45
2018-08-27T11:17:23.006Z,989.48
2018-08-27T11:18:23.004Z,989.51
2018-08-27T11:19:23.033Z,989.51
2018-08-27T11:20:23.120Z,989.52
2018-08-27T11:21:23.016Z,989.53
2018-08-27T11:22:23.021Z,989.54
2018-08-27T11:23:23.026Z,989.56
2018-08-27T11:24:23.028Z,989.49
2018-08-27T11:25:23.033Z,989.51
2018-08-27T11:26:23.172Z,989.52
2018-08-27T11:27:23.041Z,989.44
2018-08-27T11:28:23.049Z,989.5
2018-08-27T11:29:23.053Z,989.53
2018-08-27T11:30:23.141Z,989.54
2018-08-27T11:31:23.061Z,989.55
2018-08-27T11:32:23.065Z,989.6
2018-08-27T11:33:23.073Z,989.58
2018-08-27T11:34:23.072Z,989.68
2018-08-27T11:35:23.076Z,989.64
2018-08-27T11:36:23.083Z,989.58
2018-08-27T11:37:23.087Z,989.53
2018-08-27T11:38:23.094Z,989.47
2018-08-27T11:39:23.095Z,989.5
2018-08-27T11:40:23.125Z,989.56
2018-08-27T11:41:23.104Z,989.61
2018-08-27T11:42:23.109Z,989.62
2018-08-27T11:43:23.165Z,989.62
2018-08-27T11:44:23.118Z,989.6
2018-08-27T11:45:23.121Z,989.54
2018-08-27T11:46:23.126Z,989.46
2018-08-27T11:47:23.130Z,989.44
2018-08-27T11:48:23.136Z,989.52
2018-08-27T11:49:23.155Z,989.57
2018-08-27T11:50:23.383Z,989.64
2018-08-27T11:51:25.054Z,989.59
2018-08-27T11:52:23.155Z,989.55
2018-08-27T11:53:23.159Z,989.52
2018-08-27T11:54:23.167Z,989.58
2018-08-27T11:55:23.220Z,989.56
2018-08-27T11:56:23.178Z,989.58
2018-08-27T11:57:23.183Z,989.56
2018-08-27T11:58:23.206Z,989.57
2018-08-27T11:59:23.194Z,989.62
2018-08-27T12:00:23.260Z,989.69
2018-08-27T12:01:23.197Z,989.67
2018-08-27T12:02:23.205Z,989.64
2018-08-27T12:03:23.210Z,989.64
2018-08-27T12:04:23.211Z,989.63
2018-08-27T12:05:23.257Z,989.7
2018-08-27T12:06:23.222Z,989.7
2018-08-27T12:07:23.224Z,989.65
2018-08-27T12:08:23.238Z,989.56
2018-08-27T12:09:23.258Z,989.53
2018-08-27T12:10:23.247Z,989.56
2018-08-27T12:11:23.243Z,989.58
2018-08-27T12:12:23.250Z,989.58
2018-08-27T12:13:23.259Z,989.57
2018-08-27T12:14:23.256Z,989.55
2018-08-27T12:15:23.261Z,989.49
2018-08-27T12:16:23.266Z,989.53
2018-08-27T12:17:23.268Z,989.58
2018-08-27T12:18:23.276Z,989.61
2018-08-27T12:19:23.279Z,989.62
2018-08-27T12:20:23.324Z,989.73
2018-08-27T12:21:23.285Z,989.65
2018-08-27T12:22:23.305Z,989.68
2018-08-27T12:23:23.306Z,989.67
2018-08-27T12:24:23.311Z,989.68
2018-08-27T12:25:23.332Z,989.69
2018-08-27T12:26:23.308Z,989.72
2018-08-27T12:27:23.313Z,989.73
2018-08-27T12:28:23.318Z,989.74
2018-08-27T12:29:23.326Z,989.75
2018-08-27T12:30:23.363Z,989.73